createdAt,value
2022-11-22T00:00:20.199Z,43.30
2022-11-22T00:05:23.739Z,43.40
2022-11-22T00:10:27.100Z,43.10
2022-11-22T00:15:31.833Z,43.00
2022-11-22T00:20:35.451Z,43.10
2022-11-22T00:25:38.534Z,43.30
2022-11-22T00:30:43.068Z,43.40
2022-11-22T00:35:46.594Z,43.40
2022-11-22T00:40:49.685Z,43.40
2022-11-22T00:45:54.421Z,43.60
2022-11-22T00:50:58.153Z,43.40
2022-11-22T00:56:01.245Z,43.60
2022-11-22T01:01:05.821Z,43.80
2022-11-22T01:06:08.969Z,43.80
2022-11-22T01:11:12.704Z,43.80
2022-11-22T01:16:17.384Z,43.70
2022-11-22T01:21:20.444Z,43.80
2022-11-22T01:26:23.532Z,43.80
2022-11-22T01:31:30.028Z,43.90
2022-11-22T01:36:33.190Z,43.80
2022-11-22T01:41:36.321Z,43.80
2022-11-22T01:46:41.101Z,43.90
2022-11-22T01:51:47.654Z,44.00
2022-11-22T01:56:55.927Z,44.10
2022-11-22T02:02:01.288Z,44.40
2022-11-22T02:07:09.900Z,44.40
2022-11-22T02:12:14.218Z,44.60
2022-11-22T02:17:18.703Z,44.80
2022-11-22T02:22:32.339Z,44.80
2022-11-22T02:27:36.913Z,45.00
2022-11-22T02:32:40.008Z,44.80
2022-11-22T02:37:43.144Z,44.70
2022-11-22T02:42:51.781Z,44.80
2022-11-22T02:47:54.922Z,44.90
2022-11-22T02:52:58.080Z,44.80
2022-11-22T02:58:02.690Z,44.80
2022-11-22T03:03:06.132Z,44.80
2022-11-22T03:08:09.194Z,44.80
2022-11-22T03:13:13.641Z,44.90
2022-11-22T03:18:16.737Z,45.10
2022-11-22T03:23:21.186Z,45.00
2022-11-22T03:28:25.900Z,45.00
2022-11-22T03:33:29.010Z,45.50
2022-11-22T03:38:32.554Z,45.30
2022-11-22T03:43:37.042Z,45.40
2022-11-22T03:48:40.162Z,45.40
2022-11-22T03:53:43.365Z,45.10
2022-11-22T03:58:47.852Z,45.10
2022-11-22T04:03:52.332Z,45.40
2022-11-22T04:08:55.449Z,45.10
2022-11-22T04:14:17.170Z,45.10
2022-11-22T04:19:20.322Z,45.10
2022-11-22T04:24:40.821Z,45.10
2022-11-22T04:29:45.302Z,45.20
2022-11-22T04:34:48.397Z,45.30
2022-11-22T04:39:51.601Z,45.20
2022-11-22T04:44:56.550Z,45.50
2022-11-22T04:49:59.658Z,45.60
2022-11-22T04:55:02.764Z,45.40
2022-11-22T05:00:08.661Z,45.40
2022-11-22T05:05:11.907Z,45.60
2022-11-22T05:10:15.156Z,45.50
2022-11-22T05:15:19.840Z,45.50
2022-11-22T05:20:23.009Z,45.70
2022-11-22T05:25:26.185Z,45.40
2022-11-22T05:30:30.671Z,45.30
2022-11-22T05:35:33.849Z,45.60
2022-11-22T05:40:36.985Z,45.70
2022-11-22T05:45:41.462Z,45.90
2022-11-22T05:50:44.862Z,46.00
2022-11-22T05:55:48.220Z,45.70
2022-11-22T06:00:52.710Z,45.80
2022-11-22T06:05:55.824Z,45.90
2022-11-22T06:11:06.002Z,45.80
2022-11-22T06:16:11.112Z,46.10
2022-11-22T06:21:16.299Z,45.90
2022-11-22T06:26:21.593Z,46.00
2022-11-22T06:31:27.752Z,46.90
2022-11-22T06:36:32.555Z,46.70
2022-11-22T06:41:37.149Z,45.90
2022-11-22T06:46:41.610Z,45.80
2022-11-22T06:51:44.791Z,45.80
2022-11-22T06:56:47.884Z,45.70
2022-11-22T07:01:52.393Z,45.80
2022-11-22T07:06:55.660Z,46.00
2022-11-22T07:11:58.865Z,45.80
2022-11-22T07:17:03.439Z,45.80
2022-11-22T07:22:06.559Z,45.80
2022-11-22T07:27:09.655Z,45.70
2022-11-22T07:32:14.157Z,45.90
2022-11-22T07:37:17.296Z,46.30
2022-11-22T07:42:25.814Z,46.20
2022-11-22T07:47:30.737Z,46.50
2022-11-22T07:52:34.325Z,46.60
2022-11-22T07:57:37.652Z,46.60
2022-11-22T08:02:42.110Z,46.70
2022-11-22T08:07:48.395Z,46.90
2022-11-22T08:12:51.534Z,47.10
2022-11-22T08:17:56.012Z,46.90
2022-11-22T08:22:59.188Z,47.20
2022-11-22T08:28:02.262Z,47.00
2022-11-22T08:33:06.809Z,46.90
2022-11-22T08:38:10.065Z,47.20
2022-11-22T08:43:13.155Z,47.20
2022-11-22T08:48:22.057Z,47.10
2022-11-22T08:53:26.810Z,47.20
2022-11-22T08:58:30.965Z,47.10
2022-11-22T09:03:36.326Z,47.20
2022-11-22T09:08:43.001Z,47.30
2022-11-22T09:13:48.056Z,47.20
2022-11-22T09:18:53.136Z,47.20
2022-11-22T09:23:56.324Z,48.40
2022-11-22T09:28:59.569Z,47.90
2022-11-22T09:34:04.118Z,47.70
2022-11-22T09:39:07.190Z,47.70
2022-11-22T09:44:19.045Z,47.50
2022-11-22T09:49:29.361Z,47.80
2022-11-22T09:54:40.374Z,47.90
2022-11-22T09:59:48.344Z,47.80
2022-11-22T10:04:58.580Z,47.00
2022-11-22T10:10:05.612Z,47.00
2022-11-22T10:15:23.866Z,47.10
2022-11-22T10:20:30.634Z,47.40
2022-11-22T10:25:40.558Z,47.30
2022-11-22T10:30:52.782Z,47.10
2022-11-22T10:36:16.067Z,47.20
2022-11-22T10:41:32.556Z,47.10
2022-11-22T10:46:46.419Z,47.00
2022-11-22T10:51:58.088Z,47.10
2022-11-22T10:57:09.118Z,47.00
2022-11-22T11:02:25.771Z,46.90
2022-11-22T11:07:30.709Z,47.00
2022-11-22T11:12:40.636Z,47.00
2022-11-22T11:17:46.893Z,46.80
2022-11-22T11:23:13.720Z,46.80
2022-11-22T11:28:20.104Z,46.80
2022-11-22T11:33:28.309Z,46.50
2022-11-22T11:38:35.728Z,46.60
2022-11-22T11:43:44.027Z,46.70
2022-11-22T11:48:47.702Z,46.10
2022-11-22T11:54:02.595Z,46.40
2022-11-22T11:59:12.641Z,46.20
2022-11-22T12:04:21.999Z,45.90
2022-11-22T12:09:44.271Z,46.10
2022-11-22T12:15:10.901Z,45.90
2022-11-22T12:20:21.692Z,46.50
2022-11-22T12:25:34.600Z,46.00
2022-11-22T12:30:40.933Z,45.60
2022-11-22T12:35:47.006Z,45.60
2022-11-22T12:40:55.426Z,45.70
2022-11-22T12:46:01.443Z,45.40
2022-11-22T12:51:09.345Z,45.20
2022-11-22T12:56:22.590Z,44.60
2022-11-22T13:01:30.413Z,44.50
2022-11-22T13:06:40.904Z,44.70
2022-11-22T13:11:50.837Z,45.00
2022-11-22T13:16:55.542Z,45.10
2022-11-22T13:22:10.557Z,44.60
2022-11-22T13:27:20.007Z,44.00
2022-11-22T13:32:24.623Z,44.00
2022-11-22T13:37:29.575Z,44.20
2022-11-22T13:42:34.090Z,44.70
2022-11-22T13:47:46.051Z,44.90
2022-11-22T13:52:54.193Z,45.80
2022-11-22T13:58:52.351Z,45.40
2022-11-22T14:03:55.967Z,45.40
2022-11-22T14:09:28.711Z,45.50
2022-11-22T14:14:41.804Z,45.40
2022-11-22T14:20:01.087Z,45.30
2022-11-22T14:25:23.204Z,45.00
2022-11-22T14:30:39.968Z,45.00
2022-11-22T14:36:18.202Z,44.80
2022-11-22T14:41:44.513Z,44.90
2022-11-22T14:46:57.434Z,44.80
2022-11-22T14:52:02.721Z,45.00
2022-11-22T14:57:08.518Z,44.80
2022-11-22T15:02:56.227Z,45.60
2022-11-22T15:09:17.866Z,45.50
2022-11-22T15:14:00.476Z,45.50
2022-11-22T15:57:29.531Z,46.00
2022-11-22T16:02:33.252Z,46.00
2022-11-22T16:07:38.719Z,45.70
2022-11-22T16:12:43.446Z,45.50
2022-11-22T16:17:56.416Z,45.50
2022-11-22T16:23:25.001Z,45.40
2022-11-22T16:28:38.967Z,45.50
2022-11-22T16:33:42.056Z,45.40
2022-11-22T16:38:45.917Z,45.20
2022-11-22T16:43:53.055Z,45.20
2022-11-22T16:48:57.151Z,45.30
2022-11-22T16:54:06.374Z,45.30
2022-11-22T16:59:12.996Z,45.20
2022-11-22T17:04:22.856Z,45.10
2022-11-22T17:09:25.928Z,45.10
2022-11-22T17:14:30.695Z,45.20
2022-11-22T17:24:57.376Z,45.10
2022-11-22T17:30:01.904Z,45.10
2022-11-22T17:35:05.629Z,45.10
2022-11-22T17:40:10.941Z,45.00
2022-11-22T17:45:15.492Z,45.00
2022-11-22T17:50:18.797Z,45.00
2022-11-22T17:55:21.907Z,45.00
2022-11-22T18:00:30.047Z,45.00
2022-11-22T18:05:35.700Z,45.00
2022-11-22T18:10:40.116Z,45.10
2022-11-22T18:15:45.215Z,45.10
2022-11-22T18:20:49.369Z,45.00
2022-11-22T18:25:58.511Z,44.80
2022-11-22T18:31:15.363Z,45.00
2022-11-22T18:36:53.521Z,45.30
2022-11-22T18:41:47.491Z,46.10
2022-11-22T18:46:52.030Z,45.10
2022-11-22T18:51:55.747Z,45.20
2022-11-22T18:56:58.985Z,45.10
2022-11-22T19:02:03.437Z,45.10
2022-11-22T19:07:06.565Z,45.10
2022-11-22T19:12:09.728Z,45.30
2022-11-22T19:17:17.390Z,45.20
2022-11-22T19:22:24.344Z,45.30
2022-11-22T19:27:27.443Z,45.20
2022-11-22T19:32:32.129Z,45.10
2022-11-22T19:37:35.900Z,44.80
2022-11-22T19:42:40.050Z,44.70
2022-11-22T19:47:44.911Z,44.70
2022-11-22T19:52:48.043Z,44.60
2022-11-22T19:57:51.281Z,44.60
2022-11-22T20:02:55.845Z,44.50
2022-11-22T20:07:59.325Z,44.40
2022-11-22T20:13:02.971Z,44.30
2022-11-22T20:18:10.007Z,44.10
2022-11-22T20:23:13.134Z,44.10
2022-11-22T20:28:16.438Z,45.10
2022-11-22T20:33:21.303Z,45.20
2022-11-22T20:38:33.990Z,45.00
2022-11-22T20:43:37.950Z,45.10
2022-11-22T20:48:44.039Z,45.00
2022-11-22T20:53:47.703Z,44.80
2022-11-22T20:58:52.384Z,45.00
2022-11-22T21:03:57.031Z,45.00
2022-11-22T21:09:00.317Z,45.20
2022-11-22T21:14:03.393Z,45.00
2022-11-22T21:19:08.162Z,45.00
2022-11-22T21:24:13.226Z,45.00
2022-11-22T21:29:16.954Z,44.90
2022-11-22T21:34:21.525Z,45.00
2022-11-22T21:39:24.864Z,45.00
2022-11-22T21:44:28.242Z,45.00
2022-11-22T21:49:32.804Z,45.10
2022-11-22T21:54:37.171Z,45.00
2022-11-22T21:59:40.267Z,45.00
2022-11-22T22:04:44.721Z,45.10
2022-11-22T22:09:47.841Z,45.20
2022-11-22T22:14:50.967Z,45.10
2022-11-22T22:19:55.442Z,45.20
2022-11-22T22:24:58.555Z,45.20
2022-11-22T22:30:01.760Z,45.40
2022-11-22T22:35:06.948Z,45.50
2022-11-22T22:40:10.310Z,45.50
2022-11-22T22:45:13.431Z,45.50
2022-11-22T22:50:18.383Z,45.50
2022-11-22T22:55:21.444Z,45.60
2022-11-22T23:00:24.650Z,45.40
2022-11-22T23:05:29.147Z,45.40
2022-11-22T23:10:32.830Z,45.50
2022-11-22T23:15:57.378Z,45.50
2022-11-22T23:21:03.004Z,45.80
2022-11-22T23:26:08.221Z,45.80
2022-11-22T23:31:12.949Z,45.80
2022-11-22T23:36:19.118Z,45.60
2022-11-22T23:41:24.514Z,45.90
2022-11-22T23:46:28.826Z,46.00
2022-11-22T23:51:34.808Z,45.90
2022-11-22T23:56:38.062Z,45.90
